KPDX/PDX METAR and TAF weather

Enter ICAO airport designator
Station Type Date Time Source
KPDX METAR 2021/05/15 01:53 UTC NOAA

KPDX 150153Z 32017G23KT 10SM FEW060 23/10 A2998 RMK AO2 PK WND 32028/0102 SLP153 T02330100


Station Type Date Time Source
KPDX Decoded METAR 2021/05/15 01:53 UTC NOAA

PORTLAND INTERNATIONAL AIRPORT, OR, United States (KPDX) 45-35N 122-36W 7M
May 14, 2021 - 09:53 PM EDT / 2021.05.15 0153 UTC
Wind: from the NW (320 degrees) at 20 MPH (17 KT) gusting to 26 MPH (23 KT):0
Visibility: 10 mile(s):0
Sky conditions: mostly clear
Temperature: 73.9 F (23.3 C)
Dew Point: 50.0 F (10.0 C)
Relative Humidity: 42%
Pressure (altimeter): 29.98 in. Hg (1015 hPa)
ob: KPDX 150153Z 32017G23KT 10SM FEW060 23/10 A2998 RMK AO2 PK WND 32028/0102 SLP153 T02330100
cycle: 2

Station Type Date Time Source
KPDX TAF 2021/05/14 23:42 UTC NOAA

TAF
AMD KPDX 142241Z 1423/1518 32016G22KT P6SM SKC
FM150200 32011G18KT P6SM SKC
FM150600 33008KT P6SM FEW250
FM150900 VRB04KT P6SM SKC

Example: see airport list